Time;durP1;ratioP1;P1;durP2;ratioP2;P2;SDS_P1;SDS_P2;PMS_P1;PMS_P2;Temp;Humidity;BMP_temperature;BMP_pressure;BME280_temperature;BME280_humidity;BME280_pressure;Samples;Min_cycle;Max_cycle;Signal;HPM_P1;HPM_P2
2022/09/02 00:01:57;;;;;;;1.40;0.70;;;17.60;49.30;;;;;;9181117;19;20680;-70
2022/09/02 00:05:02;;;;;;;3.65;1.10;;;17.50;49.30;;;;;;9181382;19;20014;-70
2022/09/02 00:08:09;;;;;;;0.95;0.60;;;17.50;49.40;;;;;;9177192;19;20471;-69
2022/09/02 00:11:21;;;;;;;2.17;1.10;;;17.50;49.50;;;;;;9181201;19;20026;-66
2022/09/02 00:14:35;;;;;;;4.03;1.80;;;17.40;49.50;;;;;;9180760;19;20026;-69
2022/09/02 00:17:40;;;;;;;2.20;1.00;;;17.40;49.70;;;;;;9179077;19;20011;-68
2022/09/02 00:20:48;;;;;;;2.17;0.80;;;17.40;49.60;;;;;;9180955;19;20026;-69
2022/09/02 00:23:53;;;;;;;3.33;0.77;;;17.30;49.70;;;;;;9180830;19;20018;-69
2022/09/02 00:26:58;;;;;;;2.00;1.00;;;17.30;49.70;;;;;;9180226;19;20862;-71
2022/09/02 00:30:07;;;;;;;6.03;0.93;;;17.20;49.80;;;;;;9179918;19;20011;-69
2022/09/02 00:33:14;;;;;;;1.73;0.65;;;17.20;49.90;;;;;;9178547;19;20023;-69
2022/09/02 00:36:21;;;;;;;0.95;0.70;;;17.20;49.90;;;;;;9180392;19;20007;-69
2022/09/02 00:39:26;;;;;;;0.68;0.68;;;17.10;50.00;;;;;;9179176;19;20029;-69
2022/09/02 00:42:31;;;;;;;6.53;0.80;;;17.10;50.10;;;;;;9179828;19;20015;-70
2022/09/02 00:45:39;;;;;;;5.93;0.95;;;17.10;50.10;;;;;;9178644;19;20022;-69
2022/09/02 00:48:49;;;;;;;2.92;0.70;;;17.00;50.20;;;;;;9179706;19;20015;-71
2022/09/02 00:52:00;;;;;;;3.20;0.60;;;17.00;50.30;;;;;;9178914;19;20950;-69
2022/09/02 00:55:09;;;;;;;1.08;0.55;;;17.00;50.30;;;;;;9180204;19;20034;-70
2022/09/02 00:58:19;;;;;;;6.53;0.63;;;16.90;50.40;;;;;;9176730;19;20015;-71
2022/09/02 01:01:27;;;;;;;2.92;0.68;;;16.90;50.50;;;;;;9179330;19;20095;-70
2022/09/02 01:04:45;;;;;;;2.05;0.63;;;16.90;50.60;;;;;;9178777;19;20019;-70
2022/09/02 01:07:51;;;;;;;1.55;0.80;;;16.80;50.60;;;;;;9173129;19;20441;-69
2022/09/02 01:10:58;;;;;;;2.05;0.70;;;16.80;50.60;;;;;;9177371;19;20022;-68
2022/09/02 01:14:04;;;;;;;0.82;0.50;;;16.80;50.70;;;;;;9178884;19;20114;-70
2022/09/02 01:17:12;;;;;;;2.13;0.60;;;16.70;50.80;;;;;;9175484;19;20025;-70
2022/09/02 01:20:20;;;;;;;1.55;0.70;;;16.70;50.90;;;;;;9179085;19;20026;-70
2022/09/02 01:23:33;;;;;;;4.57;0.95;;;16.70;50.90;;;;;;9178947;19;20024;-68
2022/09/02 01:26:39;;;;;;;6.35;0.98;;;16.60;51.00;;;;;;9178438;19;20018;-69
2022/09/02 01:29:44;;;;;;;2.15;0.82;;;16.60;51.00;;;;;;9178806;19;20014;-71
2022/09/02 01:32:49;;;;;;;4.32;0.80;;;16.60;51.10;;;;;;9178468;19;20467;-70
2022/09/02 01:35:54;;;;;;;1.30;0.60;;;16.60;51.20;;;;;;9178064;19;20018;-70
2022/09/02 01:39:02;;;;;;;4.90;0.95;;;16.60;51.30;;;;;;9178203;19;20601;-71
2022/09/02 01:42:08;;;;;;;1.80;0.70;;;16.50;51.30;;;;;;9177318;19;20019;-70
2022/09/02 01:45:14;;;;;;;3.40;0.73;;;16.50;51.40;;;;;;9184118;19;20074;-70
2022/09/02 01:48:20;;;;;;;4.28;1.00;;;16.50;51.50;;;;;;9184558;19;20030;-70
2022/09/02 01:51:27;;;;;;;2.35;0.80;;;16.40;51.50;;;;;;9184772;19;20363;-68
2022/09/02 01:54:35;;;;;;;5.40;1.10;;;16.40;51.60;;;;;;9187056;19;20052;-71
2022/09/02 01:57:40;;;;;;;2.75;0.70;;;16.40;51.70;;;;;;9184271;19;20048;-70
2022/09/02 02:00:47;;;;;;;4.95;1.00;;;16.40;51.70;;;;;;9185282;19;20030;-71
2022/09/02 02:03:53;;;;;;;2.55;0.88;;;16.40;51.80;;;;;;9187071;19;20048;-69
2022/09/02 02:07:01;;;;;;;1.63;0.70;;;16.40;51.90;;;;;;9185377;19;20011;-69
2022/09/02 02:10:10;;;;;;;3.28;0.63;;;16.40;51.90;;;;;;9180055;19;20437;-69
2022/09/02 02:13:15;;;;;;;1.90;0.82;;;16.40;52.00;;;;;;9185374;19;20021;-71
2022/09/02 02:16:20;;;;;;;0.90;0.65;;;16.30;52.00;;;;;;9183977;19;20048;-69
2022/09/02 02:19:26;;;;;;;3.38;0.65;;;16.30;52.10;;;;;;9185788;19;20843;-69
2022/09/02 02:22:31;;;;;;;2.80;0.88;;;16.30;52.10;;;;;;9185557;19;20045;-71
2022/09/02 02:25:38;;;;;;;1.35;0.68;;;16.30;52.20;;;;;;9185528;19;20538;-70
2022/09/02 02:28:44;;;;;;;2.42;0.90;;;16.30;52.30;;;;;;9184869;19;20487;-71
2022/09/02 02:31:50;;;;;;;2.03;0.95;;;16.30;52.30;;;;;;9183944;19;20019;-71
2022/09/02 02:34:55;;;;;;;1.42;0.80;;;16.30;52.30;;;;;;9183441;19;20080;-71
2022/09/02 02:38:01;;;;;;;2.42;0.60;;;16.30;52.40;;;;;;9183681;19;20022;-71
2022/09/02 02:41:10;;;;;;;2.15;0.60;;;16.30;52.40;;;;;;9181249;19;20030;-71
2022/09/02 02:44:16;;;;;;;1.13;0.80;;;16.30;52.60;;;;;;9183116;19;20364;-69
2022/09/02 02:47:21;;;;;;;0.95;0.55;;;16.30;52.50;;;;;;9183399;19;20014;-69
2022/09/02 02:50:27;;;;;;;1.05;0.80;;;16.30;52.60;;;;;;9183015;19;20026;-69
2022/09/02 02:53:35;;;;;;;1.85;0.73;;;16.20;52.60;;;;;;9184138;19;20108;-73
2022/09/02 02:56:42;;;;;;;3.97;0.90;;;16.20;52.60;;;;;;9180035;19;20015;-69
2022/09/02 02:59:47;;;;;;;1.73;0.80;;;16.20;52.70;;;;;;9181857;19;20051;-69
2022/09/02 03:02:57;;;;;;;1.95;0.65;;;16.20;52.70;;;;;;9183969;19;20026;-69
2022/09/02 03:06:02;;;;;;;1.42;0.73;;;16.20;52.80;;;;;;9183448;19;20014;-69
2022/09/02 03:09:08;;;;;;;2.58;0.93;;;16.20;52.90;;;;;;9179201;19;20049;-71
2022/09/02 03:12:18;;;;;;;2.03;0.98;;;16.20;52.90;;;;;;9181683;19;20019;-71
2022/09/02 03:15:23;;;;;;;2.28;1.08;;;16.20;53.00;;;;;;9180993;19;20022;-66
2022/09/02 03:18:30;;;;;;;2.35;0.80;;;16.20;53.00;;;;;;9179307;19;20601;-69
2022/09/02 03:21:35;;;;;;;1.45;0.85;;;16.10;53.00;;;;;;9180620;19;20018;-68
2022/09/02 03:24:44;;;;;;;1.45;0.80;;;16.10;53.10;;;;;;9182939;19;20030;-70
2022/09/02 03:27:52;;;;;;;5.75;1.30;;;16.10;53.10;;;;;;9181091;19;20018;-68
2022/09/02 03:30:57;;;;;;;2.90;0.60;;;16.10;53.20;;;;;;9181956;19;20483;-68
2022/09/02 03:34:03;;;;;;;2.65;0.70;;;16.10;53.20;;;;;;9180630;19;20022;-69
2022/09/02 03:37:10;;;;;;;5.53;1.10;;;16.10;53.30;;;;;;9180258;19;20364;-70
2022/09/02 03:40:18;;;;;;;2.10;0.80;;;16.10;53.30;;;;;;9180062;19;20025;-70
2022/09/02 03:43:26;;;;;;;1.65;0.80;;;16.10;53.30;;;;;;9180876;19;20015;-69
2022/09/02 03:46:34;;;;;;;3.63;1.00;;;16.10;53.40;;;;;;9180452;19;20016;-70
2022/09/02 03:49:39;;;;;;;3.30;0.90;;;16.10;53.40;;;;;;9180494;19;20015;-69
2022/09/02 03:52:48;;;;;;;0.95;0.77;;;16.10;53.50;;;;;;9180385;19;20028;-70
2022/09/02 03:55:53;;;;;;;1.20;0.80;;;16.10;53.60;;;;;;9181836;19;20022;-70
2022/09/02 03:59:04;;;;;;;5.10;0.88;;;16.00;53.50;;;;;;9178400;19;20018;-69
2022/09/02 04:02:09;;;;;;;2.78;0.80;;;16.00;53.60;;;;;;9181674;19;20025;-70
2022/09/02 04:05:15;;;;;;;2.83;0.88;;;16.00;53.60;;;;;;9182250;19;20028;-68
2022/09/02 04:08:21;;;;;;;5.22;0.93;;;16.00;53.70;;;;;;9174951;19;20007;-70
2022/09/02 04:11:28;;;;;;;2.70;1.00;;;16.00;53.80;;;;;;9178890;19;20468;-69
2022/09/02 04:14:35;;;;;;;1.08;0.80;;;16.00;53.80;;;;;;9180990;19;20456;-70
2022/09/02 04:17:43;;;;;;;1.77;0.95;;;15.90;53.90;;;;;;9179516;19;20346;-69
2022/09/02 04:20:50;;;;;;;5.95;0.88;;;15.90;53.90;;;;;;9178605;19;20019;-68
2022/09/02 04:23:57;;;;;;;3.00;0.85;;;15.90;54.00;;;;;;9179128;19;20027;-69
2022/09/02 04:27:03;;;;;;;4.15;0.85;;;15.90;54.00;;;;;;9178853;19;20021;-68
2022/09/02 04:30:15;;;;;;;1.17;0.77;;;15.90;54.10;;;;;;9178627;19;20018;-71
2022/09/02 04:33:22;;;;;;;2.05;0.82;;;15.90;54.20;;;;;;9177983;19;20014;-71
2022/09/02 04:36:28;;;;;;;1.23;0.60;;;15.90;54.20;;;;;;9178621;19;20022;-70
2022/09/02 04:39:37;;;;;;;3.50;0.70;;;15.90;54.20;;;;;;9178375;19;20022;-68
2022/09/02 04:42:42;;;;;;;3.22;1.08;;;15.90;54.30;;;;;;9179987;19;20010;-70
2022/09/02 04:45:50;;;;;;;4.72;1.15;;;15.80;54.30;;;;;;9177566;19;20011;-69
2022/09/02 04:48:57;;;;;;;0.95;0.70;;;15.80;54.40;;;;;;9177992;19;20006;-70
2022/09/02 04:52:02;;;;;;;5.07;0.90;;;15.80;54.40;;;;;;9179453;19;20040;-69
2022/09/02 04:55:08;;;;;;;12.52;2.88;;;15.80;54.40;;;;;;9180548;19;20034;-70
2022/09/02 04:58:15;;;;;;;1.48;0.80;;;15.80;54.50;;;;;;9177283;19;20036;-71
2022/09/02 05:01:25;;;;;;;1.85;1.10;;;15.80;54.50;;;;;;9180166;19;20006;-70
2022/09/02 05:04:32;;;;;;;2.05;0.77;;;15.80;54.70;;;;;;9178070;19;20026;-69
2022/09/02 05:07:38;;;;;;;6.85;1.40;;;15.80;54.60;;;;;;9172926;19;20018;-70
2022/09/02 05:10:47;;;;;;;1.85;0.88;;;15.80;54.60;;;;;;9177640;19;20018;-71
2022/09/02 05:13:53;;;;;;;4.47;1.00;;;15.80;54.70;;;;;;9176493;19;20095;-72
2022/09/02 05:17:01;;;;;;;1.80;0.77;;;15.80;54.80;;;;;;9176235;19;20022;-69
2022/09/02 05:20:14;;;;;;;1.60;1.10;;;15.80;54.80;;;;;;9181690;19;20014;-70
2022/09/02 05:23:21;;;;;;;4.43;0.93;;;15.80;54.80;;;;;;9186446;19;20021;-69
2022/09/02 05:26:26;;;;;;;1.52;0.90;;;15.80;54.80;;;;;;9188840;19;20018;-70
2022/09/02 05:29:31;;;;;;;3.90;0.88;;;15.80;54.90;;;;;;9185075;19;20483;-71
2022/09/02 05:32:40;;;;;;;7.53;1.17;;;15.80;54.90;;;;;;9185828;19;20022;-70
2022/09/02 05:35:46;;;;;;;3.75;0.90;;;15.80;55.00;;;;;;9181807;19;20025;-69
2022/09/02 05:38:54;;;;;;;1.10;0.82;;;15.80;55.00;;;;;;9184590;19;20054;-69
2022/09/02 05:42:00;;;;;;;1.55;1.00;;;15.90;55.10;;;;;;9184892;19;20018;-71
2022/09/02 05:45:06;;;;;;;2.72;0.82;;;15.90;55.10;;;;;;9185357;19;20038;-70
2022/09/02 05:51:34;;;;;;;1.45;0.88;;;15.90;55.20;;;;;;9184809;19;20029;-69
2022/09/02 05:54:41;;;;;;;1.77;0.95;;;15.90;55.20;;;;;;9186406;19;20022;-69
2022/09/02 05:57:49;;;;;;;6.68;1.73;;;15.90;55.30;;;;;;9184581;19;20345;-70
2022/09/02 06:00:55;;;;;;;1.00;0.90;;;15.90;55.30;;;;;;9185746;19;20468;-68
2022/09/02 06:04:03;;;;;;;1.77;0.82;;;16.00;55.40;;;;;;9184562;19;20349;-70
2022/09/02 06:07:10;;;;;;;1.85;0.80;;;16.00;55.50;;;;;;9182617;19;20018;-70
2022/09/02 06:10:17;;;;;;;4.43;1.08;;;16.00;55.40;;;;;;9179081;19;20018;-69
2022/09/02 06:13:22;;;;;;;2.03;0.73;;;16.10;55.50;;;;;;9182374;19;20487;-70
2022/09/02 06:16:30;;;;;;;2.67;1.20;;;16.10;55.50;;;;;;9182125;19;20038;-69
2022/09/02 06:19:38;;;;;;;1.40;1.10;;;16.20;55.60;;;;;;9180057;19;20149;-70
2022/09/02 06:22:44;;;;;;;1.13;0.80;;;16.30;55.70;;;;;;9182929;19;20022;-70
2022/09/02 06:25:51;;;;;;;5.78;1.52;;;16.30;55.70;;;;;;9183420;19;20022;-70
2022/09/02 06:28:56;;;;;;;2.35;1.05;;;16.40;55.70;;;;;;9184179;19;20042;-70
2022/09/02 06:32:02;;;;;;;3.15;1.30;;;16.50;55.70;;;;;;9179008;19;20074;-68
2022/09/02 06:35:10;;;;;;;8.75;1.30;;;16.60;55.80;;;;;;9185325;19;20018;-69
2022/09/02 06:38:19;;;;;;;6.75;1.77;;;16.70;55.80;;;;;;9185234;19;20479;-69
2022/09/02 06:41:28;;;;;;;4.93;1.10;;;16.70;55.90;;;;;;9181991;19;20360;-68
2022/09/02 06:44:36;;;;;;;4.22;1.15;;;16.80;55.70;;;;;;9181461;19;20064;-68
2022/09/02 06:47:42;;;;;;;5.35;0.93;;;16.90;55.70;;;;;;9179374;19;20965;-70
2022/09/02 06:50:50;;;;;;;3.72;1.83;;;17.00;55.60;;;;;;9179653;19;20022;-69
2022/09/02 06:53:55;;;;;;;2.03;1.00;;;17.10;55.70;;;;;;9182185;19;20022;-70
2022/09/02 06:57:03;;;;;;;0.98;0.70;;;17.30;55.70;;;;;;9182025;19;20090;-69
2022/09/02 07:00:11;;;;;;;8.15;1.13;;;17.40;55.70;;;;;;9180003;19;20026;-68
2022/09/02 07:06:42;;;;;;;3.80;1.25;;;17.60;55.60;;;;;;9182795;19;20057;-71
2022/09/02 07:09:47;;;;;;;2.70;1.02;;;17.70;55.60;;;;;;9176680;19;20019;-71
2022/09/02 07:12:54;;;;;;;2.65;0.90;;;17.80;55.50;;;;;;9179748;19;20019;-70
2022/09/02 07:16:00;;;;;;;3.35;1.45;;;18.00;55.50;;;;;;9174972;19;20073;-68
2022/09/02 07:19:06;;;;;;;2.35;0.88;;;18.00;56.00;;;;;;9176458;19;20018;-67
2022/09/02 07:22:20;;;;;;;5.22;1.17;;;18.10;55.40;;;;;;9178296;19;20026;-69
2022/09/02 07:25:25;;;;;;;4.18;1.17;;;18.20;55.30;;;;;;9178604;19;20018;-67
2022/09/02 07:28:32;;;;;;;3.60;1.27;;;18.30;55.30;;;;;;9176789;19;20468;-67
2022/09/02 07:31:39;;;;;;;3.25;0.80;;;18.40;55.20;;;;;;9175615;19;20014;-69
2022/09/02 07:34:45;;;;;;;4.30;1.23;;;18.50;55.20;;;;;;9178443;19;20375;-71
2022/09/02 07:37:53;;;;;;;3.20;1.25;;;18.60;55.10;;;;;;9174301;19;20487;-69
2022/09/02 07:40:59;;;;;;;6.03;1.70;;;18.80;55.20;;;;;;9176321;19;20019;-66
2022/09/02 07:44:08;;;;;;;4.18;1.38;;;18.80;55.10;;;;;;9171301;19;20020;-70
2022/09/02 07:47:14;;;;;;;2.35;0.90;;;18.90;55.00;;;;;;9175357;19;20826;-69
2022/09/02 07:50:23;;;;;;;1.88;1.02;;;19.00;54.90;;;;;;9174495;19;20022;-68
2022/09/02 07:53:36;;;;;;;4.70;0.82;;;19.20;54.90;;;;;;9176516;19;20026;-68
2022/09/02 07:56:42;;;;;;;1.80;0.75;;;19.20;54.80;;;;;;9181234;19;20376;-70
2022/09/02 07:59:47;;;;;;;4.18;1.10;;;19.30;54.70;;;;;;9172475;19;20102;-69
2022/09/02 08:02:52;;;;;;;6.80;1.02;;;19.40;54.80;;;;;;9174012;19;20019;-69
2022/09/02 08:06:09;;;;;;;3.70;1.40;;;19.50;54.70;;;;;;9173696;19;20018;-67
2022/09/02 08:09:16;;;;;;;1.42;0.98;;;19.70;54.60;;;;;;9174272;19;20238;-69
2022/09/02 08:12:21;;;;;;;4.35;1.10;;;19.80;54.50;;;;;;9178528;19;20021;-68
2022/09/02 08:15:27;;;;;;;3.17;0.90;;;19.90;54.40;;;;;;9176888;19;20048;-66
2022/09/02 08:18:33;;;;;;;6.40;1.20;;;20.00;54.40;;;;;;9177018;19;20078;-66
2022/09/02 08:21:38;;;;;;;4.00;0.90;;;20.10;54.40;;;;;;9171645;19;20029;-67
2022/09/02 08:24:45;;;;;;;3.33;1.13;;;20.30;54.40;;;;;;9176270;19;20037;-66
2022/09/02 08:27:50;;;;;;;5.38;1.13;;;20.50;54.90;;;;;;9175456;19;20023;-69
2022/09/02 08:30:58;;;;;;;3.65;1.40;;;20.70;54.20;;;;;;9177938;19;20018;-67
2022/09/02 08:34:03;;;;;;;1.25;0.80;;;20.90;54.00;;;;;;9174374;19;20022;-68
2022/09/02 08:37:08;;;;;;;7.85;0.80;;;21.10;53.90;;;;;;9177987;19;20014;-68
2022/09/02 08:40:20;;;;;;;5.68;1.33;;;21.30;53.70;;;;;;9173764;19;20381;-69
2022/09/02 08:43:36;;;;;;;4.45;1.08;;;21.60;53.50;;;;;;9173799;19;20022;-67
2022/09/02 08:46:41;;;;;;;2.72;1.55;;;21.80;53.30;;;;;;9173257;19;20022;-68
2022/09/02 08:49:51;;;;;;;4.55;1.00;;;22.10;53.20;;;;;;9172755;19;20015;-69
2022/09/02 08:53:05;;;;;;;7.65;1.00;;;22.30;52.90;;;;;;9180056;19;20574;-67
2022/09/02 08:56:14;;;;;;;6.53;1.05;;;22.60;52.70;;;;;;9188653;19;20033;-69
2022/09/02 08:59:20;;;;;;;10.82;1.35;;;22.80;52.50;;;;;;9187574;19;20053;-66
2022/09/02 09:02:31;;;;;;;7.45;1.20;;;23.10;52.40;;;;;;9186162;19;20018;-67
2022/09/02 09:05:46;;;;;;;2.00;0.90;;;23.30;52.10;;;;;;9188539;19;20011;-66
2022/09/02 09:09:01;;;;;;;14.98;1.35;;;23.50;51.80;;;;;;9183606;19;20015;-67
2022/09/02 09:12:15;;;;;;;5.45;1.10;;;23.70;51.60;;;;;;9188788;19;20041;-66
2022/09/02 09:15:23;;;;;;;;;;;23.90;51.40;;;;;;9187049;19;20134;-67
2022/09/02 09:18:37;;;;;;;3.88;1.40;;;24.10;51.50;;;;;;9185507;19;19942;-66
2022/09/02 09:21:42;;;;;;;;;;;24.30;51.90;;;;;;9185845;19;20013;-67
2022/09/02 09:24:50;;;;;;;4.60;0.90;;;24.50;51.30;;;;;;9188698;19;20697;-67
2022/09/02 09:27:58;;;;;;;3.47;0.98;;;24.60;51.10;;;;;;9186353;19;20023;-67
2022/09/02 09:31:03;;;;;;;3.60;1.23;;;24.80;50.80;;;;;;9187756;19;20007;-71
2022/09/02 09:34:09;;;;;;;6.65;1.10;;;25.00;50.60;;;;;;9187323;19;20015;-70
2022/09/02 09:37:30;;;;;;;2.90;1.05;;;25.10;50.30;;;;;;9187893;19;20915;-69
2022/09/02 09:40:39;;;;;;;3.72;0.90;;;25.30;50.00;;;;;;9185231;19;20010;-70
2022/09/02 09:43:48;;;;;;;2.58;1.10;;;25.50;49.90;;;;;;9186246;19;20018;-69
2022/09/02 09:47:03;;;;;;;7.65;1.17;;;25.70;49.60;;;;;;9186829;19;20834;-70
2022/09/02 09:50:14;;;;;;;2.17;0.90;;;25.80;49.30;;;;;;9186012;19;20058;-68
2022/09/02 09:53:21;;;;;;;5.95;0.85;;;26.00;49.20;;;;;;9186809;19;20022;-70
2022/09/02 09:56:36;;;;;;;2.78;1.10;;;26.20;49.10;;;;;;9182367;19;20015;-69
2022/09/02 09:59:48;;;;;;;11.52;1.20;;;26.40;48.80;;;;;;9181633;19;20377;-70
2022/09/02 10:02:56;;;;;;;5.88;1.10;;;26.50;48.60;;;;;;9183183;19;20022;-71
2022/09/02 10:06:21;;;;;;;4.75;0.90;;;26.60;48.40;;;;;;9180833;19;20753;-69
2022/09/02 10:09:35;;;;;;;1.67;0.93;;;26.80;47.80;;;;;;9177437;19;20026;-71
2022/09/02 10:12:40;;;;;;;;;;;27.00;47.80;;;;;;9181112;19;20025;-71
2022/09/02 10:16:14;;;;;;;2.13;0.98;;;27.10;48.20;;;;;;9182166;19;19934;-68
2022/09/02 10:19:21;;;;;;;;;;;27.20;47.80;;;;;;9181272;19;20014;-68
2022/09/02 10:23:03;;;;;;;4.03;0.95;;;27.30;48.10;;;;;;9176308;19;20046;-67
2022/09/02 10:26:17;;;;;;;4.90;1.00;;;27.40;47.50;;;;;;9183203;19;20030;-67
2022/09/02 10:29:54;;;;;;;4.50;0.95;;;27.50;47.50;;;;;;9185454;19;20077;-68
2022/09/02 10:33:20;;;;;;;2.28;0.98;;;27.70;47.10;;;;;;9186062;19;20029;-69
2022/09/02 10:36:35;;;;;;;2.20;0.95;;;27.80;46.90;;;;;;9178716;19;20082;-68
2022/09/02 10:39:59;;;;;;;1.92;0.80;;;27.90;46.70;;;;;;9180389;19;20019;-69
2022/09/02 10:43:09;;;;;;;2.45;0.95;;;28.00;46.40;;;;;;9181303;19;20014;-68
2022/09/02 10:46:19;;;;;;;4.35;1.20;;;28.10;46.40;;;;;;9182944;19;20025;-70
2022/09/02 10:49:42;;;;;;;4.97;1.17;;;28.20;46.20;;;;;;9182712;19;20014;-69
2022/09/02 10:53:09;;;;;;;2.35;0.88;;;28.20;45.80;;;;;;9183677;19;20022;-69
2022/09/02 10:56:20;;;;;;;4.22;0.80;;;28.30;45.70;;;;;;9182666;19;20003;-68
2022/09/02 10:59:30;;;;;;;6.82;1.45;;;28.50;45.70;;;;;;9183833;19;20021;-69
2022/09/02 11:02:42;;;;;;;4.90;0.77;;;28.50;45.50;;;;;;9178102;19;20037;-69
2022/09/02 11:05:53;;;;;;;3.55;0.98;;;28.60;45.20;;;;;;9181346;19;20035;-67
2022/09/02 11:09:02;;;;;;;2.15;1.15;;;28.70;45.20;;;;;;9176516;19;20845;-70
2022/09/02 11:12:14;;;;;;;5.90;1.27;;;28.80;45.10;;;;;;9173155;19;20022;-69
2022/09/02 11:15:25;;;;;;;6.03;0.93;;;28.90;44.90;;;;;;9174350;19;20022;-70
2022/09/02 11:18:43;;;;;;;2.75;1.10;;;29.00;44.80;;;;;;9173824;19;20463;-70
2022/09/02 11:22:02;;;;;;;5.03;0.98;;;29.10;44.60;;;;;;9172930;19;20029;-71
2022/09/02 11:25:12;;;;;;;1.75;0.85;;;29.20;44.30;;;;;;9175175;19;20018;-70
2022/09/02 11:28:30;;;;;;;9.95;1.10;;;29.30;44.30;;;;;;9173974;19;20014;-71
2022/09/02 11:31:39;;;;;;;5.60;1.10;;;29.40;44.00;;;;;;9175761;19;20034;-71
2022/09/02 11:34:49;;;;;;;2.90;1.00;;;29.50;44.10;;;;;;9175542;19;20014;-71
2022/09/02 11:38:02;;;;;;;6.15;1.05;;;29.50;43.80;;;;;;9174008;19;20589;-70
2022/09/02 11:41:26;;;;;;;2.08;1.00;;;29.60;43.60;;;;;;9171587;19;20014;-72
2022/09/02 11:45:11;;;;;;;1.40;0.80;;;29.60;43.30;;;;;;9170284;19;20510;-72
2022/09/02 11:48:49;;;;;;;7.68;0.90;;;29.70;43.20;;;;;;9171506;19;20014;-72
2022/09/02 11:52:09;;;;;;;7.82;1.50;;;29.70;43.00;;;;;;9168417;19;20010;-69
2022/09/02 11:55:24;;;;;;;6.50;1.10;;;29.80;43.00;;;;;;9171155;19;20026;-72
2022/09/02 11:58:38;;;;;;;1.30;0.82;;;29.80;42.80;;;;;;9174687;19;20038;-69
2022/09/02 12:01:51;;;;;;;2.20;0.90;;;29.80;42.60;;;;;;9175228;19;20041;-70
2022/09/02 12:05:38;;;;;;;0.93;0.80;;;29.80;42.50;;;;;;9175609;19;20014;-69
2022/09/02 12:09:05;;;;;;;3.03;1.27;;;29.70;42.20;;;;;;9169391;19;20038;-68
2022/09/02 12:13:00;;;;;;;2.85;0.85;;;29.80;42.30;;;;;;9173274;19;20025;-71
2022/09/02 12:16:38;;;;;;;3.55;0.90;;;29.70;42.10;;;;;;9172463;19;20033;-69
2022/09/02 12:19:47;;;;;;;3.92;1.25;;;29.60;42.00;;;;;;9174136;19;20050;-67
2022/09/02 12:22:52;;;;;;;2.95;1.27;;;29.50;42.20;;;;;;9167240;19;20018;-68
2022/09/02 12:26:02;;;;;;;4.72;0.98;;;29.40;42.20;;;;;;9172711;19;20077;-70
2022/09/02 12:29:33;;;;;;;2.88;1.25;;;29.30;42.30;;;;;;9175381;19;20061;-71
2022/09/02 12:33:12;;;;;;;2.80;1.02;;;29.20;42.10;;;;;;9174753;19;20015;-71
2022/09/02 12:36:47;;;;;;;0.70;0.70;;;29.10;42.20;;;;;;9174704;19;20542;-69
2022/09/02 12:39:58;;;;;;;4.72;0.90;;;29.00;42.20;;;;;;9167779;19;20015;-70
2022/09/02 12:43:08;;;;;;;2.03;1.10;;;29.00;42.30;;;;;;9171748;19;20014;-67
2022/09/02 12:46:24;;;;;;;4.53;0.95;;;28.90;42.20;;;;;;9173693;19;20026;-69
2022/09/02 12:49:39;;;;;;;4.88;1.20;;;28.80;42.00;;;;;;9173991;19;20014;-69
2022/09/02 12:52:47;;;;;;;2.70;1.05;;;28.80;41.90;;;;;;9171979;19;20027;-68
2022/09/02 12:55:57;;;;;;;1.48;0.88;;;28.80;42.00;;;;;;9172259;19;20018;-67
2022/09/02 12:59:02;;;;;;;2.42;1.17;;;28.70;41.80;;;;;;9168826;19;20050;-68
2022/09/02 13:02:26;;;;;;;3.20;1.13;;;28.70;41.90;;;;;;9172307;19;20029;-68
2022/09/02 13:05:55;;;;;;;2.45;1.08;;;28.60;41.50;;;;;;9169361;19;20029;-69
2022/09/02 13:09:21;;;;;;;1.73;1.00;;;28.60;41.50;;;;;;9162100;19;20026;-69
2022/09/02 13:12:55;;;;;;;2.50;0.95;;;28.50;41.50;;;;;;9170825;19;20029;-68
2022/09/02 13:16:14;;;;;;;3.08;1.05;;;28.40;41.50;;;;;;9166615;19;20019;-68
2022/09/02 13:20:04;;;;;;;5.88;1.02;;;28.40;41.50;;;;;;9167889;19;20025;-68
2022/09/02 13:23:50;;;;;;;4.20;1.25;;;28.30;41.50;;;;;;9163551;19;20460;-69
2022/09/02 13:27:20;;;;;;;3.80;0.85;;;28.30;41.60;;;;;;9169467;19;20050;-67
2022/09/02 13:30:51;;;;;;;5.53;1.00;;;28.20;41.50;;;;;;9166834;19;20011;-67
2022/09/02 13:34:00;;;;;;;2.20;1.08;;;28.10;41.50;;;;;;9167514;19;20911;-66
2022/09/02 13:37:29;;;;;;;5.03;1.23;;;28.00;41.40;;;;;;9154050;19;20037;-66
2022/09/02 13:40:41;;;;;;;2.45;1.10;;;28.00;41.30;;;;;;9171036;19;20106;-69
2022/09/02 13:43:47;;;;;;;1.23;1.00;;;27.90;41.50;;;;;;9178560;19;20023;-67
2022/09/02 13:46:54;;;;;;;5.47;1.30;;;27.80;41.60;;;;;;9177005;19;20018;-68
2022/09/02 13:50:00;;;;;;;9.68;1.10;;;27.70;41.50;;;;;;9178169;19;20047;-69
2022/09/02 13:53:09;;;;;;;5.53;1.05;;;27.60;41.50;;;;;;9185070;19;20057;-68
2022/09/02 13:56:36;;;;;;;5.82;1.10;;;27.60;41.50;;;;;;9185142;19;20094;-71
2022/09/02 13:59:48;;;;;;;4.80;1.05;;;27.60;41.50;;;;;;9184709;19;20026;-71
2022/09/02 14:03:01;;;;;;;5.00;1.42;;;27.50;41.40;;;;;;9181931;19;20029;-71
2022/09/02 14:06:06;;;;;;;5.82;1.40;;;27.50;41.30;;;;;;9184108;19;20014;-69
2022/09/02 14:09:20;;;;;;;1.10;0.93;;;27.50;41.40;;;;;;9185889;19;20018;-71
2022/09/02 14:12:29;;;;;;;7.38;1.50;;;27.60;41.40;;;;;;9183818;19;20479;-70
2022/09/02 14:15:35;;;;;;;4.35;1.00;;;27.50;41.30;;;;;;9170819;19;20015;-71
2022/09/02 14:18:40;;;;;;;1.92;1.08;;;27.60;41.40;;;;;;9171363;19;20016;-69
2022/09/02 14:21:52;;;;;;;1.95;1.08;;;27.60;41.30;;;;;;9169372;19;20018;-71
2022/09/02 14:24:57;;;;;;;1.67;1.30;;;27.70;41.20;;;;;;9172959;19;20014;-70
2022/09/02 14:28:12;;;;;;;1.80;1.33;;;27.70;41.30;;;;;;9171431;19;20439;-69
2022/09/02 14:31:29;;;;;;;5.03;1.00;;;27.70;41.20;;;;;;9180947;19;20022;-69
2022/09/02 14:34:36;;;;;;;2.30;1.10;;;27.80;41.20;;;;;;9180638;19;20022;-70
2022/09/02 14:37:53;;;;;;;1.77;1.00;;;27.70;41.20;;;;;;9178245;19;20053;-70
2022/09/02 14:41:03;;;;;;;4.15;1.38;;;27.70;41.00;;;;;;9179326;19;20350;-70
2022/09/02 14:44:16;;;;;;;2.15;1.30;;;27.70;41.20;;;;;;9178306;19;20026;-70
2022/09/02 14:47:23;;;;;;;3.05;1.25;;;27.70;41.10;;;;;;9180547;19;20021;-69
2022/09/02 14:50:31;;;;;;;1.20;0.98;;;27.70;41.20;;;;;;9181042;19;20019;-70
2022/09/02 14:53:38;;;;;;;2.25;1.27;;;27.60;41.10;;;;;;9182918;19;20018;-70
2022/09/02 14:56:49;;;;;;;1.98;1.00;;;27.60;41.00;;;;;;9177302;19;20014;-71
2022/09/02 14:59:58;;;;;;;5.95;1.20;;;27.60;41.10;;;;;;9177152;19;20003;-68
2022/09/02 15:03:03;;;;;;;11.40;1.13;;;27.50;40.90;;;;;;9174626;19;20440;-72
2022/09/02 15:06:08;;;;;;;3.30;1.02;;;27.50;41.00;;;;;;9180217;19;20011;-73
2022/09/02 15:09:19;;;;;;;1.67;1.05;;;27.50;41.00;;;;;;9179485;19;20021;-72
2022/09/02 15:12:28;;;;;;;4.40;1.15;;;27.50;41.00;;;;;;9181271;19;20780;-73
2022/09/02 15:15:36;;;;;;;4.18;1.20;;;27.50;41.00;;;;;;9176881;19;20026;-73
2022/09/02 15:18:41;;;;;;;2.67;1.40;;;27.40;40.80;;;;;;9177028;19;20026;-72
2022/09/02 15:21:46;;;;;;;2.45;1.00;;;27.50;41.00;;;;;;9176568;19;20014;-73
2022/09/02 15:24:50;;;;;;;2.83;1.10;;;27.50;41.00;;;;;;9177557;19;20027;-70
2022/09/02 15:27:56;;;;;;;3.92;0.98;;;27.40;41.00;;;;;;9176783;19;20017;-72
2022/09/02 15:31:04;;;;;;;3.67;1.30;;;27.40;41.00;;;;;;9179274;19;20978;-68
2022/09/02 15:34:09;;;;;;;3.42;1.15;;;27.30;40.90;;;;;;9176352;19;20025;-70
2022/09/02 15:37:13;;;;;;;2.65;1.23;;;27.30;40.90;;;;;;9172966;19;20482;-70
2022/09/02 15:40:19;;;;;;;3.28;1.00;;;27.30;40.90;;;;;;9174877;19;20502;-68
2022/09/02 15:43:24;;;;;;;3.35;1.20;;;27.30;41.00;;;;;;9175109;19;20020;-69
2022/09/02 15:46:33;;;;;;;5.97;1.30;;;27.20;41.10;;;;;;9176833;19;20476;-68
2022/09/02 15:49:38;;;;;;;2.70;1.23;;;27.20;41.00;;;;;;9172870;19;20102;-69
2022/09/02 15:52:45;;;;;;;3.20;1.20;;;27.10;41.00;;;;;;9181847;19;20361;-69
2022/09/02 15:55:50;;;;;;;3.55;1.20;;;27.10;40.90;;;;;;9169455;19;20018;-68
2022/09/02 15:59:01;;;;;;;1.35;0.98;;;27.00;40.90;;;;;;9175378;19;20010;-68
2022/09/02 16:02:08;;;;;;;5.13;1.30;;;27.00;40.90;;;;;;9174328;19;20014;-69
2022/09/02 16:05:14;;;;;;;8.05;1.27;;;26.90;40.80;;;;;;9174248;19;20019;-69
2022/09/02 16:08:19;;;;;;;1.40;1.13;;;26.90;40.90;;;;;;9173517;19;20025;-68
2022/09/02 16:11:24;;;;;;;2.33;1.13;;;26.80;40.80;;;;;;9173685;19;20500;-68
2022/09/02 16:14:29;;;;;;;6.97;1.10;;;26.80;40.90;;;;;;9173907;19;20018;-68
2022/09/02 16:17:37;;;;;;;2.33;1.25;;;26.80;40.80;;;;;;9174230;19;20017;-68
2022/09/02 16:20:42;;;;;;;4.07;1.63;;;26.80;40.90;;;;;;9173625;19;20399;-68
2022/09/02 16:23:48;;;;;;;1.98;1.02;;;26.70;40.90;;;;;;9173562;19;20046;-67
2022/09/02 16:26:53;;;;;;;3.03;1.15;;;26.70;40.90;;;;;;9174438;19;20126;-68
2022/09/02 16:29:58;;;;;;;1.17;0.85;;;26.70;40.90;;;;;;9173016;19;20022;-68
2022/09/02 16:33:06;;;;;;;6.45;1.33;;;26.60;40.80;;;;;;9173652;19;20017;-69
2022/09/02 16:36:11;;;;;;;2.67;1.48;;;26.60;40.80;;;;;;9168913;19;20075;-67
2022/09/02 16:39:16;;;;;;;1.50;0.90;;;26.60;40.80;;;;;;9173687;19;20018;-68